Aktuální počasí v Česku a ve světě - METAR

Seznam meteostanic umístěných nejčasteji na letišti v ČR a ve světě

Vyhledat místa podle abecedy:
A B C D E F G H I J K L M N O P Q R S T U V W X Y Z

Filtrovat:

ID stanice:
a/nebo
Název místa (fulltext):
 
Místo (ID)Naposledy načteno 
Aalborg (EKYT) 04.03.2021 10:59 UTC Zobrazit METAR
EKYT 041059Z 02010KT 9999 NSC 04/M05 Q1022
Aarhus (EKAH) 04.03.2021 07:50 UTC Zobrazit METAR
EKAH 040750Z AUTO 04009KT 9999 FEW061/// 03/M00 Q1019
Abu Dhabi (OMAA) 05.03.2021 11:00 UTC Zobrazit METAR
OMAA 051100Z 27010KT CAVOK 39/04 Q1011 BECMG 33015KT
Abuja (DNAA) 05.03.2021 11:00 UTC Zobrazit METAR
DNAA 051100Z 10007KT 7000 NSC 36/09 Q1010 NOSIG
Accra (DGAA) 05.03.2021 11:00 UTC Zobrazit METAR
DGAA 051100Z 23011KT 200V270 5000 HZ FEW025 31/25 Q1010 NOSIG
Addis Abeba (HAAB) 05.03.2021 10:00 UTC Zobrazit METAR
HAAB 051000Z 12011KT 9999 FEW025 23/06 Q1026
Agana (PGUM) 05.03.2021 10:54 UTC Zobrazit METAR
PGUM 051054Z 08008KT 10SM FEW023 SCT055 BKN090 26/23 A2994 RMK AO2 RAB15E42 SLP131 P0000 T02610228
Ahe Island (NTHE) Zatím nenačteno  
Akureyri (BIAR) 05.03.2021 11:00 UTC Zobrazit METAR
BIAR 051100Z 15016KT CAVOK 04/M02 Q1022
Almaty (UAAA) Zatím nenačteno  
Amman (OJAM) 05.03.2021 11:00 UTC Zobrazit METAR
OJAM 051100Z 26013KT 9999 SCT025 SCT030 15/03 Q1024 NOSIG
Amsterdam (EHAM) 05.03.2021 10:55 UTC Zobrazit METAR
EHAM 051055Z 05009KT 360V080 9999 FEW040 05/M04 Q1030 NOSIG
Antananarivo (FMMI) 05.03.2021 10:00 UTC Zobrazit METAR
FMMI 051000Z 36006KT 310V050 9999 BKN020 25/18 Q1013 NOSIG
Antwerp (EBAW) 05.03.2021 10:50 UTC Zobrazit METAR
EBAW 051050Z 03010KT 360V080 9999 FEW040 05/M04 Q1030 NOSIG
Apia (NSFA) 05.03.2021 11:00 UTC Zobrazit METAR
NSFA 051100Z 16004KT 9999 FEW022 24/23 Q1011
Aruba I (TNCA) 05.03.2021 11:00 UTC Zobrazit METAR
TNCA 051100Z 10009KT 9999 FEW018 25/22 Q1012 NOSIG
Ascension I. (FHAW) 04.03.2021 11:50 UTC Zobrazit METAR
FHAW 041150Z 15014KT 9999 FEW022 29/20 Q1013 NOSIG RMK BLU BLU
Ashgabat (UTAA) 05.03.2021 10:00 UTC Zobrazit METAR
UTAA 051000Z 13012KT 9999 SCT049 BKN099 16/02 Q1011 R88/CLRD70 NOSIG
Asmara (HHAS) 03.02.2015 17:00 UTC Zobrazit METAR
HHAS 031700Z 27004KT CAVOK 15/06 Q1028 NOSIG
Astana (UACC) Zatím nenačteno  
Astrakhan (URWA) Zatím nenačteno  
Asuncion (SGAS) 05.03.2021 11:00 UTC Zobrazit METAR
SGAS 051100Z 21006KT 9999 BKN015 24/22 Q1010
Athens (LGAV) 05.03.2021 10:50 UTC Zobrazit METAR
LGAV 051050Z 23009KT 200V260 CAVOK 19/M01 Q1018 NOSIG
Reklama

Reklama


Počasí na Váš email

Emaily jsou bez reklamy a bez spamu



Odhlásit newsletter



Další české internetové stránky (nejen) o počasí najdete v katalogu TOPlist - weby o počasí nebo vyhledejte na internetu, co jste tu na 🌞 Slunečnu ⛅ zatím nenašli:
⭐ Přidat Slunečno.cz do oblíbených | 🏠 Nastavit Slunečno.cz jako HOMEPAGE

⬆️ Posunout stránku nahoru ⬆️
Reklama